sensor_id;sensor_type;location;lat;lon;timestamp;temperature;humidity
7384;DHT22;3733;47.994;8.820;2022-12-11T00:02:08;-1.80;99.90
7384;DHT22;3733;47.994;8.820;2022-12-11T00:04:34;-1.80;99.90
7384;DHT22;3733;47.994;8.820;2022-12-11T00:06:59;-1.90;99.90
7384;DHT22;3733;47.994;8.820;2022-12-11T00:09:25;-1.90;99.90
7384;DHT22;3733;47.994;8.820;2022-12-11T00:11:51;-1.90;99.90
7384;DHT22;3733;47.994;8.820;2022-12-11T00:14:16;-2.00;99.90
7384;DHT22;3733;47.994;8.820;2022-12-11T00:16:42;-2.00;99.90
7384;DHT22;3733;47.994;8.820;2022-12-11T00:19:08;-2.00;99.90
7384;DHT22;3733;47.994;8.820;2022-12-11T00:21:33;-2.10;99.90
7384;DHT22;3733;47.994;8.820;2022-12-11T00:23:59;-2.10;99.90
7384;DHT22;3733;47.994;8.820;2022-12-11T00:26:25;-2.20;99.90
7384;DHT22;3733;47.994;8.820;2022-12-11T00:28:53;-2.20;99.90
7384;DHT22;3733;47.994;8.820;2022-12-11T00:31:20;-2.30;99.90
7384;DHT22;3733;47.994;8.820;2022-12-11T00:33:47;-2.20;99.90
7384;DHT22;3733;47.994;8.820;2022-12-11T00:36:19;-2.20;99.90
7384;DHT22;3733;47.994;8.820;2022-12-11T00:38:45;-2.20;99.90
7384;DHT22;3733;47.994;8.820;2022-12-11T00:41:11;-2.20;99.90
7384;DHT22;3733;47.994;8.820;2022-12-11T00:43:37;-2.10;99.90
7384;DHT22;3733;47.994;8.820;2022-12-11T00:46:03;-2.10;99.90
7384;DHT22;3733;47.994;8.820;2022-12-11T00:48:29;-2.10;99.90
7384;DHT22;3733;47.994;8.820;2022-12-11T00:50:54;-2.00;99.90
7384;DHT22;3733;47.994;8.820;2022-12-11T00:53:20;-2.00;99.90
7384;DHT22;3733;47.994;8.820;2022-12-11T00:55:46;-2.00;99.90
7384;DHT22;3733;47.994;8.820;2022-12-11T00:58:12;-2.10;99.90
7384;DHT22;3733;47.994;8.820;2022-12-11T01:00:39;-2.00;99.90
7384;DHT22;3733;47.994;8.820;2022-12-11T01:03:05;-2.10;99.90
7384;DHT22;3733;47.994;8.820;2022-12-11T01:05:31;-2.10;99.90
7384;DHT22;3733;47.994;8.820;2022-12-11T01:07:57;-2.10;99.90
7384;DHT22;3733;47.994;8.820;2022-12-11T01:10:23;-2.10;99.90
7384;DHT22;3733;47.994;8.820;2022-12-11T01:12:51;-2.10;99.90
7384;DHT22;3733;47.994;8.820;2022-12-11T01:15:18;-2.10;99.90
7384;DHT22;3733;47.994;8.820;2022-12-11T01:17:44;-2.20;99.90
7384;DHT22;3733;47.994;8.820;2022-12-11T01:20:10;-2.10;99.90
7384;DHT22;3733;47.994;8.820;2022-12-11T01:22:36;-2.20;99.90
7384;DHT22;3733;47.994;8.820;2022-12-11T01:25:02;-2.20;99.90
7384;DHT22;3733;47.994;8.820;2022-12-11T01:27:28;-2.20;99.90
7384;DHT22;3733;47.994;8.820;2022-12-11T01:29:53;-2.20;99.90
7384;DHT22;3733;47.994;8.820;2022-12-11T01:32:19;-2.20;99.90
7384;DHT22;3733;47.994;8.820;2022-12-11T01:34:45;-2.20;99.90
7384;DHT22;3733;47.994;8.820;2022-12-11T01:37:10;-2.20;99.90
7384;DHT22;3733;47.994;8.820;2022-12-11T01:39:36;-2.30;99.90
7384;DHT22;3733;47.994;8.820;2022-12-11T01:42:04;-2.40;99.90
7384;DHT22;3733;47.994;8.820;2022-12-11T01:46:56;-2.50;99.90
7384;DHT22;3733;47.994;8.820;2022-12-11T01:49:24;-2.50;99.90
7384;DHT22;3733;47.994;8.820;2022-12-11T01:52:00;-2.60;99.90
7384;DHT22;3733;47.994;8.820;2022-12-11T01:54:28;-2.70;99.90
7384;DHT22;3733;47.994;8.820;2022-12-11T01:56:57;-2.70;99.90
7384;DHT22;3733;47.994;8.820;2022-12-11T01:59:26;-2.80;99.90
7384;DHT22;3733;47.994;8.820;2022-12-11T02:04:23;-2.90;99.90
7384;DHT22;3733;47.994;8.820;2022-12-11T02:06:51;-2.90;99.90
7384;DHT22;3733;47.994;8.820;2022-12-11T02:09:29;-2.90;99.90
7384;DHT22;3733;47.994;8.820;2022-12-11T02:12:16;-2.90;99.90
7384;DHT22;3733;47.994;8.820;2022-12-11T02:20:41;-3.00;99.90
7384;DHT22;3733;47.994;8.820;2022-12-11T02:29:00;-3.20;99.90
7384;DHT22;3733;47.994;8.820;2022-12-11T02:31:36;-3.20;99.90
7384;DHT22;3733;47.994;8.820;2022-12-11T02:36:47;-3.40;99.90
7384;DHT22;3733;47.994;8.820;2022-12-11T02:39:15;-3.50;99.90
7384;DHT22;3733;47.994;8.820;2022-12-11T02:41:45;-3.60;99.90
7384;DHT22;3733;47.994;8.820;2022-12-11T02:44:14;-3.70;99.90
7384;DHT22;3733;47.994;8.820;2022-12-11T02:46:42;-3.70;99.90
7384;DHT22;3733;47.994;8.820;2022-12-11T02:49:09;-3.80;99.90
7384;DHT22;3733;47.994;8.820;2022-12-11T02:51:39;-3.90;99.90
7384;DHT22;3733;47.994;8.820;2022-12-11T02:54:09;-4.00;99.90
7384;DHT22;3733;47.994;8.820;2022-12-11T02:59:27;-4.10;99.90
7384;DHT22;3733;47.994;8.820;2022-12-11T03:01:54;-4.20;99.90
7384;DHT22;3733;47.994;8.820;2022-12-11T03:04:20;-4.20;99.90
7384;DHT22;3733;47.994;8.820;2022-12-11T03:06:52;-4.20;99.90
7384;DHT22;3733;47.994;8.820;2022-12-11T03:09:19;-4.30;99.90
7384;DHT22;3733;47.994;8.820;2022-12-11T03:11:45;-4.30;99.90
7384;DHT22;3733;47.994;8.820;2022-12-11T03:14:11;-4.30;99.90
7384;DHT22;3733;47.994;8.820;2022-12-11T03:16:51;-4.20;99.90
7384;DHT22;3733;47.994;8.820;2022-12-11T03:22:36;-4.10;99.90
7384;DHT22;3733;47.994;8.820;2022-12-11T03:25:07;-4.00;99.90
7384;DHT22;3733;47.994;8.820;2022-12-11T03:28:28;-4.00;99.90
7384;DHT22;3733;47.994;8.820;2022-12-11T03:30:27;-4.00;99.90
7384;DHT22;3733;47.994;8.820;2022-12-11T03:32:59;-3.90;99.90
7384;DHT22;3733;47.994;8.820;2022-12-11T03:35:44;-3.80;99.90
7384;DHT22;3733;47.994;8.820;2022-12-11T03:38:17;-3.70;99.90
7384;DHT22;3733;47.994;8.820;2022-12-11T03:40:45;-3.60;99.90
7384;DHT22;3733;47.994;8.820;2022-12-11T03:43:14;-3.50;99.90
7384;DHT22;3733;47.994;8.820;2022-12-11T03:45:41;-3.40;99.90
7384;DHT22;3733;47.994;8.820;2022-12-11T03:48:08;-3.40;99.90
7384;DHT22;3733;47.994;8.820;2022-12-11T03:50:36;-3.30;99.90
7384;DHT22;3733;47.994;8.820;2022-12-11T03:53:02;-3.30;99.90
7384;DHT22;3733;47.994;8.820;2022-12-11T03:55:29;-3.30;99.90
7384;DHT22;3733;47.994;8.820;2022-12-11T03:57:56;-3.30;99.90
7384;DHT22;3733;47.994;8.820;2022-12-11T04:00:22;-3.30;99.90
7384;DHT22;3733;47.994;8.820;2022-12-11T04:02:48;-3.40;99.90
7384;DHT22;3733;47.994;8.820;2022-12-11T04:05:34;-3.40;99.90
7384;DHT22;3733;47.994;8.820;2022-12-11T04:07:59;-3.40;99.90
7384;DHT22;3733;47.994;8.820;2022-12-11T04:10:25;-3.40;99.90
7384;DHT22;3733;47.994;8.820;2022-12-11T04:12:51;-3.50;99.90
7384;DHT22;3733;47.994;8.820;2022-12-11T04:15:16;-3.50;99.90
7384;DHT22;3733;47.994;8.820;2022-12-11T04:17:42;-3.50;99.90
7384;DHT22;3733;47.994;8.820;2022-12-11T04:20:26;-3.60;99.90
7384;DHT22;3733;47.994;8.820;2022-12-11T04:23:13;-3.60;99.90
7384;DHT22;3733;47.994;8.820;2022-12-11T04:26:16;-3.70;99.90
7384;DHT22;3733;47.994;8.820;2022-12-11T04:28:43;-3.70;99.90
7384;DHT22;3733;47.994;8.820;2022-12-11T04:31:15;-3.70;99.90
7384;DHT22;3733;47.994;8.820;2022-12-11T04:33:41;-3.80;99.90
7384;DHT22;3733;47.994;8.820;2022-12-11T04:36:07;-3.80;99.90
7384;DHT22;3733;47.994;8.820;2022-12-11T04:38:33;-3.80;99.90
7384;DHT22;3733;47.994;8.820;2022-12-11T04:41:00;-3.80;99.90
7384;DHT22;3733;47.994;8.820;2022-12-11T04:43:27;-3.90;99.90
7384;DHT22;3733;47.994;8.820;2022-12-11T04:46:07;-3.90;99.90
7384;DHT22;3733;47.994;8.820;2022-12-11T04:48:33;-4.00;99.90
7384;DHT22;3733;47.994;8.820;2022-12-11T04:50:59;-4.00;99.90
7384;DHT22;3733;47.994;8.820;2022-12-11T04:53:25;-4.00;99.90
7384;DHT22;3733;47.994;8.820;2022-12-11T04:55:51;-4.00;99.90
7384;DHT22;3733;47.994;8.820;2022-12-11T04:58:17;-4.00;99.90
7384;DHT22;3733;47.994;8.820;2022-12-11T05:00:43;-4.00;99.90
7384;DHT22;3733;47.994;8.820;2022-12-11T05:03:09;-4.00;99.90
7384;DHT22;3733;47.994;8.820;2022-12-11T05:05:35;-4.00;99.90
7384;DHT22;3733;47.994;8.820;2022-12-11T05:08:00;-3.90;99.90
7384;DHT22;3733;47.994;8.820;2022-12-11T05:10:26;-3.90;99.90
7384;DHT22;3733;47.994;8.820;2022-12-11T05:12:51;-3.90;99.90
7384;DHT22;3733;47.994;8.820;2022-12-11T05:15:17;-3.90;99.90
7384;DHT22;3733;47.994;8.820;2022-12-11T05:17:43;-4.00;99.90
7384;DHT22;3733;47.994;8.820;2022-12-11T05:20:09;-4.00;99.90
7384;DHT22;3733;47.994;8.820;2022-12-11T05:22:35;-4.10;99.90
7384;DHT22;3733;47.994;8.820;2022-12-11T05:25:01;-4.20;99.90
7384;DHT22;3733;47.994;8.820;2022-12-11T05:27:26;-4.20;99.90
7384;DHT22;3733;47.994;8.820;2022-12-11T05:29:52;-4.20;99.90
7384;DHT22;3733;47.994;8.820;2022-12-11T05:32:18;-4.20;99.90
7384;DHT22;3733;47.994;8.820;2022-12-11T05:34:43;-4.20;99.90
7384;DHT22;3733;47.994;8.820;2022-12-11T05:37:09;-4.20;99.90
7384;DHT22;3733;47.994;8.820;2022-12-11T05:39:34;-4.10;99.90
7384;DHT22;3733;47.994;8.820;2022-12-11T05:42:00;-4.10;99.90
7384;DHT22;3733;47.994;8.820;2022-12-11T05:44:26;-4.10;99.90
7384;DHT22;3733;47.994;8.820;2022-12-11T05:46:52;-4.20;99.90
7384;DHT22;3733;47.994;8.820;2022-12-11T05:49:17;-4.20;99.90
7384;DHT22;3733;47.994;8.820;2022-12-11T05:51:43;-4.30;99.90
7384;DHT22;3733;47.994;8.820;2022-12-11T05:54:09;-4.40;99.90
7384;DHT22;3733;47.994;8.820;2022-12-11T05:56:35;-4.50;99.90
7384;DHT22;3733;47.994;8.820;2022-12-11T05:59:03;-4.60;99.90
7384;DHT22;3733;47.994;8.820;2022-12-11T06:01:32;-4.70;99.90
7384;DHT22;3733;47.994;8.820;2022-12-11T06:03:58;-4.80;99.90
7384;DHT22;3733;47.994;8.820;2022-12-11T06:06:24;-4.80;99.90
7384;DHT22;3733;47.994;8.820;2022-12-11T06:08:52;-4.80;99.90
7384;DHT22;3733;47.994;8.820;2022-12-11T06:11:18;-4.90;99.90
7384;DHT22;3733;47.994;8.820;2022-12-11T06:13:44;-4.90;99.90
7384;DHT22;3733;47.994;8.820;2022-12-11T06:16:10;-5.00;99.90
7384;DHT22;3733;47.994;8.820;2022-12-11T06:18:41;-5.00;99.90
7384;DHT22;3733;47.994;8.820;2022-12-11T06:23:36;-5.00;99.90
7384;DHT22;3733;47.994;8.820;2022-12-11T06:26:03;-5.00;99.90
7384;DHT22;3733;47.994;8.820;2022-12-11T06:28:28;-5.00;99.90
7384;DHT22;3733;47.994;8.820;2022-12-11T06:30:57;-5.10;99.90
7384;DHT22;3733;47.994;8.820;2022-12-11T06:33:23;-5.20;99.90
7384;DHT22;3733;47.994;8.820;2022-12-11T06:35:48;-5.20;99.90
7384;DHT22;3733;47.994;8.820;2022-12-11T06:38:14;-5.20;99.90
7384;DHT22;3733;47.994;8.820;2022-12-11T06:40:39;-5.20;99.90
7384;DHT22;3733;47.994;8.820;2022-12-11T06:43:05;-5.30;99.90
7384;DHT22;3733;47.994;8.820;2022-12-11T06:45:31;-5.30;99.90
7384;DHT22;3733;47.994;8.820;2022-12-11T06:47:57;-5.40;99.90
7384;DHT22;3733;47.994;8.820;2022-12-11T06:50:23;-5.50;99.90
7384;DHT22;3733;47.994;8.820;2022-12-11T06:52:48;-5.60;99.90
7384;DHT22;3733;47.994;8.820;2022-12-11T06:55:14;-5.60;99.90
7384;DHT22;3733;47.994;8.820;2022-12-11T06:57:39;-5.70;99.90
7384;DHT22;3733;47.994;8.820;2022-12-11T07:00:06;-5.70;99.90
7384;DHT22;3733;47.994;8.820;2022-12-11T07:02:31;-5.70;99.90
7384;DHT22;3733;47.994;8.820;2022-12-11T07:04:57;-5.70;99.90
7384;DHT22;3733;47.994;8.820;2022-12-11T07:07:23;-5.70;99.90
7384;DHT22;3733;47.994;8.820;2022-12-11T07:09:48;-5.70;99.90
7384;DHT22;3733;47.994;8.820;2022-12-11T07:12:15;-5.80;99.90
7384;DHT22;3733;47.994;8.820;2022-12-11T07:14:41;-5.80;99.90
7384;DHT22;3733;47.994;8.820;2022-12-11T07:17:06;-5.80;99.90
7384;DHT22;3733;47.994;8.820;2022-12-11T07:19:32;-5.80;99.90
7384;DHT22;3733;47.994;8.820;2022-12-11T07:21:57;-5.80;99.90
7384;DHT22;3733;47.994;8.820;2022-12-11T07:24:23;-5.90;99.90
7384;DHT22;3733;47.994;8.820;2022-12-11T07:26:49;-5.90;99.90
7384;DHT22;3733;47.994;8.820;2022-12-11T07:29:14;-5.90;99.90
7384;DHT22;3733;47.994;8.820;2022-12-11T07:31:40;-6.00;99.90
7384;DHT22;3733;47.994;8.820;2022-12-11T07:34:06;-6.00;99.90
7384;DHT22;3733;47.994;8.820;2022-12-11T07:36:33;-6.00;99.90
7384;DHT22;3733;47.994;8.820;2022-12-11T07:38:59;-6.10;99.90
7384;DHT22;3733;47.994;8.820;2022-12-11T07:41:25;-6.10;99.90
7384;DHT22;3733;47.994;8.820;2022-12-11T07:43:53;-6.10;99.90
7384;DHT22;3733;47.994;8.820;2022-12-11T07:46:23;-6.10;99.90
7384;DHT22;3733;47.994;8.820;2022-12-11T07:48:48;-6.10;99.90
7384;DHT22;3733;47.994;8.820;2022-12-11T07:51:25;-6.00;99.90
7384;DHT22;3733;47.994;8.820;2022-12-11T07:54:00;-6.00;99.90
7384;DHT22;3733;47.994;8.820;2022-12-11T07:56:27;-6.00;99.90
7384;DHT22;3733;47.994;8.820;2022-12-11T07:58:54;-6.00;99.90
7384;DHT22;3733;47.994;8.820;2022-12-11T08:01:23;-6.00;99.90
7384;DHT22;3733;47.994;8.820;2022-12-11T08:03:53;-6.00;99.90
7384;DHT22;3733;47.994;8.820;2022-12-11T08:06:24;-6.00;99.90
7384;DHT22;3733;47.994;8.820;2022-12-11T08:08:51;-6.00;99.90
7384;DHT22;3733;47.994;8.820;2022-12-11T08:11:17;-5.90;99.90
7384;DHT22;3733;47.994;8.820;2022-12-11T08:13:43;-5.90;99.90
7384;DHT22;3733;47.994;8.820;2022-12-11T08:16:11;-5.90;99.90
7384;DHT22;3733;47.994;8.820;2022-12-11T08:18:37;-5.80;99.90
7384;DHT22;3733;47.994;8.820;2022-12-11T08:21:10;-5.80;99.90
7384;DHT22;3733;47.994;8.820;2022-12-11T08:23:36;-5.80;99.90
7384;DHT22;3733;47.994;8.820;2022-12-11T08:26:06;-5.70;99.90
7384;DHT22;3733;47.994;8.820;2022-12-11T08:28:33;-5.70;99.90
7384;DHT22;3733;47.994;8.820;2022-12-11T08:30:58;-5.60;99.90
7384;DHT22;3733;47.994;8.820;2022-12-11T08:33:24;-5.50;99.90
7384;DHT22;3733;47.994;8.820;2022-12-11T08:35:50;-5.50;99.90
7384;DHT22;3733;47.994;8.820;2022-12-11T08:38:16;-5.40;99.90
7384;DHT22;3733;47.994;8.820;2022-12-11T08:40:41;-5.40;99.90
7384;DHT22;3733;47.994;8.820;2022-12-11T08:43:07;-5.40;99.90
7384;DHT22;3733;47.994;8.820;2022-12-11T08:45:33;-5.30;99.90
7384;DHT22;3733;47.994;8.820;2022-12-11T08:47:59;-5.30;99.90
7384;DHT22;3733;47.994;8.820;2022-12-11T08:50:25;-5.20;99.90
7384;DHT22;3733;47.994;8.820;2022-12-11T08:52:50;-5.20;99.90
7384;DHT22;3733;47.994;8.820;2022-12-11T08:55:16;-5.10;99.90
7384;DHT22;3733;47.994;8.820;2022-12-11T08:57:42;-5.00;99.90
7384;DHT22;3733;47.994;8.820;2022-12-11T09:00:09;-4.90;99.90
7384;DHT22;3733;47.994;8.820;2022-12-11T09:02:36;-4.90;99.90
7384;DHT22;3733;47.994;8.820;2022-12-11T09:05:03;-4.80;99.90
7384;DHT22;3733;47.994;8.820;2022-12-11T09:07:32;-4.80;99.90
7384;DHT22;3733;47.994;8.820;2022-12-11T09:09:58;-4.70;99.90
7384;DHT22;3733;47.994;8.820;2022-12-11T09:12:24;-4.60;99.90
7384;DHT22;3733;47.994;8.820;2022-12-11T09:14:50;-4.60;99.90
7384;DHT22;3733;47.994;8.820;2022-12-11T09:17:15;-4.70;99.90
7384;DHT22;3733;47.994;8.820;2022-12-11T09:19:41;-4.70;99.90
7384;DHT22;3733;47.994;8.820;2022-12-11T09:22:07;-4.70;99.90
7384;DHT22;3733;47.994;8.820;2022-12-11T09:24:36;-4.70;99.90
7384;DHT22;3733;47.994;8.820;2022-12-11T09:27:02;-4.60;99.90
7384;DHT22;3733;47.994;8.820;2022-12-11T09:29:28;-4.50;99.90
7384;DHT22;3733;47.994;8.820;2022-12-11T09:31:54;-4.50;99.90
7384;DHT22;3733;47.994;8.820;2022-12-11T09:34:20;-4.40;99.90
7384;DHT22;3733;47.994;8.820;2022-12-11T09:36:45;-4.30;99.90
7384;DHT22;3733;47.994;8.820;2022-12-11T09:39:13;-4.20;99.90
7384;DHT22;3733;47.994;8.820;2022-12-11T09:46:36;-3.90;99.90
7384;DHT22;3733;47.994;8.820;2022-12-11T09:49:04;-3.80;99.90
7384;DHT22;3733;47.994;8.820;2022-12-11T09:51:41;-3.70;99.90
7384;DHT22;3733;47.994;8.820;2022-12-11T09:54:11;-3.60;99.90
7384;DHT22;3733;47.994;8.820;2022-12-11T09:56:44;-3.60;99.90
7384;DHT22;3733;47.994;8.820;2022-12-11T09:59:30;-3.50;99.90
7384;DHT22;3733;47.994;8.820;2022-12-11T10:07:27;-3.50;98.40
7384;DHT22;3733;47.994;8.820;2022-12-11T10:15:25;-3.30;99.00
7384;DHT22;3733;47.994;8.820;2022-12-11T10:17:56;-3.30;99.50
7384;DHT22;3733;47.994;8.820;2022-12-11T10:20:24;-3.20;99.70
7384;DHT22;3733;47.994;8.820;2022-12-11T10:22:51;-3.10;99.90
7384;DHT22;3733;47.994;8.820;2022-12-11T10:25:28;-3.00;99.90
7384;DHT22;3733;47.994;8.820;2022-12-11T10:27:54;-2.90;99.60
7384;DHT22;3733;47.994;8.820;2022-12-11T10:30:26;-2.80;99.60
7384;DHT22;3733;47.994;8.820;2022-12-11T10:35:33;-2.60;99.10
7384;DHT22;3733;47.994;8.820;2022-12-11T10:40:48;-2.50;97.80
7384;DHT22;3733;47.994;8.820;2022-12-11T10:43:14;-2.40;96.10
7384;DHT22;3733;47.994;8.820;2022-12-11T10:45:52;-2.40;94.60
7384;DHT22;3733;47.994;8.820;2022-12-11T10:48:18;-2.40;95.20
7384;DHT22;3733;47.994;8.820;2022-12-11T10:50:53;-2.40;95.50
7384;DHT22;3733;47.994;8.820;2022-12-11T10:53:20;-2.40;97.60
7384;DHT22;3733;47.994;8.820;2022-12-11T10:55:47;-2.30;98.10
7384;DHT22;3733;47.994;8.820;2022-12-11T10:58:19;-2.20;97.10
7384;DHT22;3733;47.994;8.820;2022-12-11T11:03:26;-2.10;95.90
7384;DHT22;3733;47.994;8.820;2022-12-11T11:06:06;-2.10;95.20
7384;DHT22;3733;47.994;8.820;2022-12-11T11:08:42;-2.00;96.00
7384;DHT22;3733;47.994;8.820;2022-12-11T11:13:49;-1.80;95.70
7384;DHT22;3733;47.994;8.820;2022-12-11T11:16:17;-1.80;94.90
7384;DHT22;3733;47.994;8.820;2022-12-11T11:18:53;-1.70;94.20
7384;DHT22;3733;47.994;8.820;2022-12-11T11:21:21;-1.60;94.20
7384;DHT22;3733;47.994;8.820;2022-12-11T11:23:49;-1.60;95.20
7384;DHT22;3733;47.994;8.820;2022-12-11T11:26:15;-1.50;95.80
7384;DHT22;3733;47.994;8.820;2022-12-11T11:28:52;-1.50;95.10
7384;DHT22;3733;47.994;8.820;2022-12-11T11:31:21;-1.40;94.10
7384;DHT22;3733;47.994;8.820;2022-12-11T11:34:04;-1.50;95.00
7384;DHT22;3733;47.994;8.820;2022-12-11T11:36:33;-1.50;95.70
7384;DHT22;3733;47.994;8.820;2022-12-11T11:41:51;-1.50;96.70
7384;DHT22;3733;47.994;8.820;2022-12-11T11:44:34;-1.60;97.80
7384;DHT22;3733;47.994;8.820;2022-12-11T11:47:10;-1.60;97.90
7384;DHT22;3733;47.994;8.820;2022-12-11T11:49:59;-1.60;98.10
7384;DHT22;3733;47.994;8.820;2022-12-11T11:53:26;-1.70;99.70
7384;DHT22;3733;47.994;8.820;2022-12-11T11:55:48;-1.70;99.90
7384;DHT22;3733;47.994;8.820;2022-12-11T11:58:20;-1.70;99.90
7384;DHT22;3733;47.994;8.820;2022-12-11T12:00:55;-1.70;99.90
7384;DHT22;3733;47.994;8.820;2022-12-11T12:03:22;-1.70;99.90
7384;DHT22;3733;47.994;8.820;2022-12-11T12:19:31;-1.40;99.90
7384;DHT22;3733;47.994;8.820;2022-12-11T12:24:59;-1.40;99.90
7384;DHT22;3733;47.994;8.820;2022-12-11T12:30:22;-1.30;99.90
7384;DHT22;3733;47.994;8.820;2022-12-11T12:33:43;-1.20;99.90
7384;DHT22;3733;47.994;8.820;2022-12-11T12:36:05;-1.20;99.90
7384;DHT22;3733;47.994;8.820;2022-12-11T12:38:54;-1.20;99.90
7384;DHT22;3733;47.994;8.820;2022-12-11T12:44:14;-1.20;99.90
7384;DHT22;3733;47.994;8.820;2022-12-11T12:47:02;-1.30;99.90
7384;DHT22;3733;47.994;8.820;2022-12-11T12:51:58;-1.40;99.90
7384;DHT22;3733;47.994;8.820;2022-12-11T12:54:26;-1.40;99.90
7384;DHT22;3733;47.994;8.820;2022-12-11T12:56:54;-1.40;99.90
7384;DHT22;3733;47.994;8.820;2022-12-11T13:01:48;-1.30;99.90
7384;DHT22;3733;47.994;8.820;2022-12-11T13:04:38;-1.20;99.90
7384;DHT22;3733;47.994;8.820;2022-12-11T13:07:21;-1.10;99.90
7384;DHT22;3733;47.994;8.820;2022-12-11T13:10:07;-1.00;99.90
7384;DHT22;3733;47.994;8.820;2022-12-11T13:12:47;-0.90;99.90
7384;DHT22;3733;47.994;8.820;2022-12-11T13:17:58;-0.70;99.90
7384;DHT22;3733;47.994;8.820;2022-12-11T13:20:26;-0.70;99.90
7384;DHT22;3733;47.994;8.820;2022-12-11T13:22:55;-0.60;99.90
7384;DHT22;3733;47.994;8.820;2022-12-11T13:25:46;-0.60;98.70
7384;DHT22;3733;47.994;8.820;2022-12-11T13:28:33;-0.60;97.80
7384;DHT22;3733;47.994;8.820;2022-12-11T13:33:46;-0.60;95.90
7384;DHT22;3733;47.994;8.820;2022-12-11T13:36:17;-0.60;95.30
7384;DHT22;3733;47.994;8.820;2022-12-11T13:39:33;-0.70;94.20
7384;DHT22;3733;47.994;8.820;2022-12-11T13:41:39;-0.70;94.20
7384;DHT22;3733;47.994;8.820;2022-12-11T13:44:17;-0.80;94.20
7384;DHT22;3733;47.994;8.820;2022-12-11T13:46:44;-0.90;94.40
7384;DHT22;3733;47.994;8.820;2022-12-11T13:49:22;-1.00;94.70
7384;DHT22;3733;47.994;8.820;2022-12-11T13:51:52;-1.10;96.90
7384;DHT22;3733;47.994;8.820;2022-12-11T13:54:18;-1.20;99.20
7384;DHT22;3733;47.994;8.820;2022-12-11T13:59:33;-1.30;99.90
7384;DHT22;3733;47.994;8.820;2022-12-11T14:02:44;-1.30;99.90
7384;DHT22;3733;47.994;8.820;2022-12-11T14:05:10;-1.40;99.90
7384;DHT22;3733;47.994;8.820;2022-12-11T14:08:04;-1.50;99.90
7384;DHT22;3733;47.994;8.820;2022-12-11T14:10:29;-1.50;99.90
7384;DHT22;3733;47.994;8.820;2022-12-11T14:13:02;-1.60;99.90
7384;DHT22;3733;47.994;8.820;2022-12-11T14:15:31;-1.60;99.90
7384;DHT22;3733;47.994;8.820;2022-12-11T14:17:58;-1.60;99.90
7384;DHT22;3733;47.994;8.820;2022-12-11T14:20:28;-1.60;99.90
7384;DHT22;3733;47.994;8.820;2022-12-11T14:25:30;-1.60;99.90
7384;DHT22;3733;47.994;8.820;2022-12-11T14:27:55;-1.50;99.90
7384;DHT22;3733;47.994;8.820;2022-12-11T14:30:26;-1.50;99.90
7384;DHT22;3733;47.994;8.820;2022-12-11T14:32:57;-1.40;99.90
7384;DHT22;3733;47.994;8.820;2022-12-11T14:37:49;-1.40;99.90
7384;DHT22;3733;47.994;8.820;2022-12-11T14:40:17;-1.30;99.90
7384;DHT22;3733;47.994;8.820;2022-12-11T14:42:53;-1.30;99.90
7384;DHT22;3733;47.994;8.820;2022-12-11T14:45:34;-1.30;99.90
7384;DHT22;3733;47.994;8.820;2022-12-11T14:48:03;-1.20;99.90
7384;DHT22;3733;47.994;8.820;2022-12-11T14:50:44;-1.20;99.90
7384;DHT22;3733;47.994;8.820;2022-12-11T14:55:52;-1.20;99.90
7384;DHT22;3733;47.994;8.820;2022-12-11T14:58:23;-1.20;99.90
7384;DHT22;3733;47.994;8.820;2022-12-11T15:03:32;-1.30;98.90
7384;DHT22;3733;47.994;8.820;2022-12-11T15:05:58;-1.30;98.00
7384;DHT22;3733;47.994;8.820;2022-12-11T15:08:29;-1.30;97.60
7384;DHT22;3733;47.994;8.820;2022-12-11T15:11:08;-1.40;98.10
7384;DHT22;3733;47.994;8.820;2022-12-11T15:13:36;-1.40;98.50
7384;DHT22;3733;47.994;8.820;2022-12-11T15:16:05;-1.50;99.30
7384;DHT22;3733;47.994;8.820;2022-12-11T15:18:35;-1.60;99.90
7384;DHT22;3733;47.994;8.820;2022-12-11T15:21:03;-1.60;99.90
7384;DHT22;3733;47.994;8.820;2022-12-11T15:23:55;-1.70;99.90
7384;DHT22;3733;47.994;8.820;2022-12-11T15:26:34;-1.80;99.90
7384;DHT22;3733;47.994;8.820;2022-12-11T15:29:02;-1.90;99.90
7384;DHT22;3733;47.994;8.820;2022-12-11T15:31:31;-2.00;99.90
7384;DHT22;3733;47.994;8.820;2022-12-11T15:33:58;-2.10;99.90
7384;DHT22;3733;47.994;8.820;2022-12-11T15:36:25;-2.10;99.90
7384;DHT22;3733;47.994;8.820;2022-12-11T15:38:54;-2.20;99.90
7384;DHT22;3733;47.994;8.820;2022-12-11T15:41:21;-2.30;99.90
7384;DHT22;3733;47.994;8.820;2022-12-11T15:43:50;-2.40;99.90
7384;DHT22;3733;47.994;8.820;2022-12-11T15:46:16;-2.50;99.90
7384;DHT22;3733;47.994;8.820;2022-12-11T15:48:41;-2.50;99.90
7384;DHT22;3733;47.994;8.820;2022-12-11T15:51:08;-2.60;99.90
7384;DHT22;3733;47.994;8.820;2022-12-11T15:53:34;-2.70;99.90
7384;DHT22;3733;47.994;8.820;2022-12-11T15:55:59;-2.80;99.90
7384;DHT22;3733;47.994;8.820;2022-12-11T15:58:26;-2.90;99.90
7384;DHT22;3733;47.994;8.820;2022-12-11T16:00:52;-2.90;99.90
7384;DHT22;3733;47.994;8.820;2022-12-11T16:03:19;-3.00;99.90
7384;DHT22;3733;47.994;8.820;2022-12-11T16:05:45;-3.00;99.90
7384;DHT22;3733;47.994;8.820;2022-12-11T16:08:16;-3.10;99.90
7384;DHT22;3733;47.994;8.820;2022-12-11T16:10:43;-3.10;99.90
7384;DHT22;3733;47.994;8.820;2022-12-11T16:13:10;-3.20;99.90
7384;DHT22;3733;47.994;8.820;2022-12-11T16:15:37;-3.20;99.90
7384;DHT22;3733;47.994;8.820;2022-12-11T16:18:06;-3.20;99.90
7384;DHT22;3733;47.994;8.820;2022-12-11T16:20:33;-3.30;99.90
7384;DHT22;3733;47.994;8.820;2022-12-11T16:23:00;-3.30;99.90
7384;DHT22;3733;47.994;8.820;2022-12-11T16:25:26;-3.30;99.90
7384;DHT22;3733;47.994;8.820;2022-12-11T16:27:59;-3.40;99.90
7384;DHT22;3733;47.994;8.820;2022-12-11T16:30:26;-3.40;99.90
7384;DHT22;3733;47.994;8.820;2022-12-11T16:32:53;-3.50;99.90
7384;DHT22;3733;47.994;8.820;2022-12-11T16:35:19;-3.60;99.90
7384;DHT22;3733;47.994;8.820;2022-12-11T16:37:48;-3.60;99.90
7384;DHT22;3733;47.994;8.820;2022-12-11T16:40:14;-3.70;99.90
7384;DHT22;3733;47.994;8.820;2022-12-11T16:42:40;-3.80;99.90
7384;DHT22;3733;47.994;8.820;2022-12-11T16:45:14;-3.80;99.90
7384;DHT22;3733;47.994;8.820;2022-12-11T16:47:40;-3.80;99.90
7384;DHT22;3733;47.994;8.820;2022-12-11T16:50:06;-3.80;99.90
7384;DHT22;3733;47.994;8.820;2022-12-11T16:52:32;-3.90;99.90
7384;DHT22;3733;47.994;8.820;2022-12-11T16:54:58;-3.80;99.90
7384;DHT22;3733;47.994;8.820;2022-12-11T16:57:24;-3.90;99.90
7384;DHT22;3733;47.994;8.820;2022-12-11T16:59:50;-3.90;99.90
7384;DHT22;3733;47.994;8.820;2022-12-11T17:02:17;-4.00;99.90
7384;DHT22;3733;47.994;8.820;2022-12-11T17:04:43;-4.00;99.90
7384;DHT22;3733;47.994;8.820;2022-12-11T17:07:10;-4.10;99.90
7384;DHT22;3733;47.994;8.820;2022-12-11T17:09:36;-4.10;99.90
7384;DHT22;3733;47.994;8.820;2022-12-11T17:12:02;-4.20;99.90
7384;DHT22;3733;47.994;8.820;2022-12-11T17:14:27;-4.20;99.90
7384;DHT22;3733;47.994;8.820;2022-12-11T17:16:54;-4.30;99.90
7384;DHT22;3733;47.994;8.820;2022-12-11T17:19:20;-4.30;99.90
7384;DHT22;3733;47.994;8.820;2022-12-11T17:21:46;-4.40;99.90
7384;DHT22;3733;47.994;8.820;2022-12-11T17:24:14;-4.40;99.90
7384;DHT22;3733;47.994;8.820;2022-12-11T17:26:40;-4.50;99.90
7384;DHT22;3733;47.994;8.820;2022-12-11T17:29:06;-4.60;99.90
7384;DHT22;3733;47.994;8.820;2022-12-11T17:31:32;-4.60;99.90
7384;DHT22;3733;47.994;8.820;2022-12-11T17:33:58;-4.70;99.90
7384;DHT22;3733;47.994;8.820;2022-12-11T17:36:27;-4.70;99.90
7384;DHT22;3733;47.994;8.820;2022-12-11T17:38:53;-4.70;99.90
7384;DHT22;3733;47.994;8.820;2022-12-11T17:41:19;-4.70;99.90
7384;DHT22;3733;47.994;8.820;2022-12-11T17:43:47;-4.80;99.90
7384;DHT22;3733;47.994;8.820;2022-12-11T17:46:13;-4.80;99.90
7384;DHT22;3733;47.994;8.820;2022-12-11T17:48:39;-4.80;99.90
7384;DHT22;3733;47.994;8.820;2022-12-11T17:51:07;-4.90;99.90
7384;DHT22;3733;47.994;8.820;2022-12-11T17:53:34;-4.90;99.90
7384;DHT22;3733;47.994;8.820;2022-12-11T17:56:05;-5.00;99.90
7384;DHT22;3733;47.994;8.820;2022-12-11T17:58:32;-5.10;99.90